createdAt,value
2018-07-02T00:01:04.088Z,29.90
2018-07-02T00:03:32.723Z,30.03
2018-07-02T00:06:12.313Z,30.07
2018-07-02T00:08:40.483Z,29.93
2018-07-02T00:11:09.840Z,30.07
2018-07-02T00:13:38.495Z,30.34
2018-07-02T00:16:06.688Z,30.15
2018-07-02T00:18:35.041Z,29.97
2018-07-02T00:21:03.192Z,29.86
2018-07-02T00:23:31.387Z,29.51
2018-07-02T00:25:59.513Z,30.04
2018-07-02T00:28:27.809Z,30.45
2018-07-02T00:30:56.011Z,30.89
2018-07-02T00:33:24.238Z,30.45
2018-07-02T00:35:52.380Z,31.16
2018-07-02T00:38:20.539Z,29.94
2018-07-02T00:40:48.663Z,31.45
2018-07-02T00:43:17.150Z,30.98
2018-07-02T00:45:45.257Z,31.29
2018-07-02T00:48:13.450Z,31.10
2018-07-02T00:50:41.516Z,31.03
2018-07-02T00:53:09.621Z,31.37
2018-07-02T00:55:37.827Z,31.03
2018-07-02T00:58:05.896Z,30.82
2018-07-02T01:00:33.995Z,31.16
2018-07-02T01:03:02.134Z,31.06
2018-07-02T01:05:30.240Z,31.34
2018-07-02T01:07:58.380Z,31.24
2018-07-02T01:10:26.687Z,30.94
2018-07-02T01:12:54.786Z,32.10
2018-07-02T01:15:22.904Z,32.20
2018-07-02T01:17:50.989Z,31.60
2018-07-02T01:20:27.278Z,30.84
2018-07-02T01:22:55.347Z,33.77
2018-07-02T01:25:23.436Z,35.09
2018-07-02T01:27:51.518Z,33.73
2018-07-02T01:30:19.594Z,35.04
2018-07-02T01:32:47.671Z,34.77
2018-07-02T01:35:15.747Z,35.24
2018-07-02T01:37:43.834Z,34.67
2018-07-02T01:40:11.898Z,35.27
2018-07-02T01:42:39.982Z,35.17
2018-07-02T01:45:08.049Z,35.49
2018-07-02T01:47:36.220Z,35.64
2018-07-02T01:50:04.311Z,36.11
2018-07-02T01:52:32.419Z,35.99
2018-07-02T01:55:00.471Z,35.50
2018-07-02T01:57:28.630Z,34.99
2018-07-02T01:59:56.686Z,34.93
2018-07-02T02:02:24.770Z,34.88
2018-07-02T02:04:52.826Z,35.08
2018-07-02T02:07:20.910Z,34.60
2018-07-02T02:09:49.009Z,35.41
2018-07-02T02:12:17.788Z,34.87
2018-07-02T02:14:45.969Z,35.88
2018-07-02T02:17:14.066Z,35.41
2018-07-02T02:19:42.147Z,35.48
2018-07-02T02:22:10.238Z,35.99
2018-07-02T02:24:38.320Z,36.47
2018-07-02T02:27:06.436Z,35.15
2018-07-02T02:29:34.516Z,35.69
2018-07-02T02:32:02.616Z,35.42
2018-07-02T02:34:30.739Z,36.33
2018-07-02T02:36:58.818Z,36.20
2018-07-02T02:39:26.926Z,35.40
2018-07-02T02:41:54.988Z,35.41
2018-07-02T02:44:23.068Z,35.96
2018-07-02T02:46:51.147Z,37.92
2018-07-02T02:49:19.224Z,37.25
2018-07-02T02:51:47.839Z,38.22
2018-07-02T02:54:15.923Z,38.09
2018-07-02T02:56:44.063Z,38.14
2018-07-02T02:59:12.161Z,38.87
2018-07-02T03:01:40.597Z,37.98
2018-07-02T03:04:08.743Z,36.90
2018-07-02T03:06:36.821Z,37.90
2018-07-02T03:09:06.875Z,38.08
2018-07-02T03:11:35.014Z,37.74
2018-07-02T03:14:03.145Z,36.84
2018-07-02T03:16:31.208Z,37.42
2018-07-02T03:18:59.267Z,37.28
2018-07-02T03:21:27.355Z,37.45
2018-07-02T03:23:55.411Z,37.59
2018-07-02T03:26:23.499Z,37.81
2018-07-02T03:28:51.566Z,38.38
2018-07-02T03:31:19.661Z,37.62
2018-07-02T03:33:47.908Z,37.84
2018-07-02T03:36:16.064Z,37.60
2018-07-02T03:38:44.125Z,37.93
2018-07-02T03:41:12.182Z,38.13
2018-07-02T03:43:40.247Z,38.21
2018-07-02T03:46:08.466Z,38.77
2018-07-02T03:48:36.570Z,38.03
2018-07-02T03:51:05.100Z,36.79
2018-07-02T03:53:33.230Z,36.12
2018-07-02T03:56:01.498Z,35.86
2018-07-02T03:58:29.591Z,35.87
2018-07-02T04:00:57.746Z,36.26
2018-07-02T04:03:25.851Z,35.87
2018-07-02T04:05:53.931Z,36.00
2018-07-02T04:08:22.036Z,34.90
2018-07-02T04:10:50.102Z,35.71
2018-07-02T04:13:18.210Z,37.11
2018-07-02T04:15:46.517Z,37.17
2018-07-02T04:18:14.631Z,36.27
2018-07-02T04:20:43.503Z,36.11
2018-07-02T04:23:11.574Z,36.70
2018-07-02T04:25:39.651Z,36.16
2018-07-02T04:28:07.748Z,36.05
2018-07-02T04:30:35.809Z,35.90
2018-07-02T04:33:03.921Z,36.16
2018-07-02T04:35:32.079Z,36.83
2018-07-02T04:38:00.136Z,36.12
2018-07-02T04:40:28.201Z,36.49
2018-07-02T04:42:56.278Z,36.70
2018-07-02T04:45:24.375Z,37.32
2018-07-02T04:47:52.454Z,38.27
2018-07-02T04:50:20.656Z,36.68
2018-07-02T04:52:48.795Z,37.09
2018-07-02T04:55:16.879Z,36.32
2018-07-02T04:57:44.931Z,36.32
2018-07-02T05:00:13.031Z,36.54
2018-07-02T05:02:41.107Z,36.62
2018-07-02T05:05:09.167Z,36.65
2018-07-02T05:07:37.229Z,35.82
2018-07-02T05:10:05.305Z,35.90
2018-07-02T05:12:33.390Z,36.69
2018-07-02T05:15:01.429Z,36.52
2018-07-02T05:17:29.504Z,36.00
2018-07-02T05:19:57.580Z,36.38
2018-07-02T05:22:25.920Z,35.92
2018-07-02T05:24:58.611Z,36.07
2018-07-02T05:27:26.891Z,36.33
2018-07-02T05:29:54.987Z,36.63
2018-07-02T05:32:23.057Z,36.22
2018-07-02T05:34:51.178Z,36.54
2018-07-02T05:37:25.846Z,36.61
2018-07-02T05:39:53.941Z,36.94
2018-07-02T05:42:21.984Z,37.04
2018-07-02T05:44:50.388Z,37.09
2018-07-02T05:47:18.545Z,36.55
2018-07-02T05:49:46.612Z,36.74
2018-07-02T05:52:14.704Z,36.80
2018-07-02T05:54:42.817Z,36.30
2018-07-02T05:57:10.904Z,36.66
2018-07-02T05:59:38.954Z,36.47
2018-07-02T06:02:07.016Z,35.98
2018-07-02T06:04:35.126Z,36.92
2018-07-02T06:07:03.213Z,36.47
2018-07-02T06:09:31.283Z,37.20
2018-07-02T06:11:59.428Z,37.28
2018-07-02T06:14:27.484Z,36.85
2018-07-02T06:16:55.540Z,37.11
2018-07-02T06:19:23.831Z,37.10
2018-07-02T06:21:51.893Z,37.02
2018-07-02T06:24:19.951Z,36.54
2018-07-02T06:26:48.753Z,37.13
2018-07-02T06:29:16.827Z,38.04
2018-07-02T06:31:44.908Z,36.95
2018-07-02T06:34:13.027Z,36.64
2018-07-02T06:36:41.087Z,36.59
2018-07-02T06:39:10.163Z,37.18
2018-07-02T06:41:38.250Z,37.04
2018-07-02T06:44:06.439Z,36.14
2018-07-02T06:46:34.509Z,36.71
2018-07-02T06:49:02.776Z,36.45
2018-07-02T06:51:30.819Z,36.21
2018-07-02T06:53:58.946Z,35.35
2018-07-02T06:56:27.556Z,36.07
2018-07-02T06:58:55.676Z,36.24
2018-07-02T07:01:23.828Z,35.94
2018-07-02T07:03:51.883Z,35.68
2018-07-02T07:06:19.971Z,34.96
2018-07-02T07:08:49.101Z,36.16
2018-07-02T07:11:17.395Z,35.67
2018-07-02T07:13:45.480Z,35.77
2018-07-02T07:16:13.572Z,35.63
2018-07-02T07:18:41.745Z,34.91
2018-07-02T07:21:09.854Z,35.25
2018-07-02T07:23:37.966Z,35.70
2018-07-02T07:26:07.176Z,34.90
2018-07-02T07:28:35.273Z,34.96
2018-07-02T07:31:03.351Z,35.09
2018-07-02T07:33:31.438Z,34.55
2018-07-02T07:35:59.508Z,34.85
2018-07-02T07:38:27.568Z,34.75
2018-07-02T07:40:55.921Z,34.43
2018-07-02T07:43:24.194Z,34.06
2018-07-02T07:45:52.609Z,34.16
2018-07-02T07:48:20.680Z,33.72
2018-07-02T07:50:49.290Z,34.21
2018-07-02T07:53:17.510Z,33.89
2018-07-02T07:55:45.526Z,33.44
2018-07-02T07:58:13.607Z,33.76
2018-07-02T08:00:41.733Z,34.26
2018-07-02T08:03:09.891Z,33.33
2018-07-02T08:05:38.138Z,33.59
2018-07-02T08:08:06.251Z,33.49
2018-07-02T08:10:34.344Z,32.81
2018-07-02T08:13:02.421Z,33.31
2018-07-02T08:15:30.503Z,33.18
2018-07-02T08:17:58.570Z,33.42
2018-07-02T08:20:26.681Z,32.88
2018-07-02T08:22:54.836Z,32.80
2018-07-02T08:25:22.940Z,32.79
2018-07-02T08:27:51.017Z,33.03
2018-07-02T08:30:19.392Z,32.39
2018-07-02T08:32:47.490Z,32.59
2018-07-02T08:35:15.527Z,32.74
2018-07-02T08:37:43.637Z,32.42
2018-07-02T08:40:11.752Z,32.30
2018-07-02T08:42:39.820Z,32.17
2018-07-02T08:45:08.708Z,31.76
2018-07-02T08:47:36.781Z,31.67
2018-07-02T08:50:05.083Z,31.44
2018-07-02T08:52:33.150Z,31.30
2018-07-02T08:55:01.196Z,31.79
2018-07-02T08:57:29.316Z,31.53
2018-07-02T08:59:57.419Z,29.94
2018-07-02T09:02:25.492Z,31.05
2018-07-02T09:04:53.554Z,30.82
2018-07-02T09:07:21.636Z,29.59
2018-07-02T09:09:49.695Z,31.00
2018-07-02T09:12:17.899Z,31.07
2018-07-02T09:14:46.063Z,30.75
2018-07-02T09:17:14.212Z,30.22
2018-07-02T09:19:42.317Z,30.53
2018-07-02T09:22:10.428Z,29.76
2018-07-02T09:24:38.837Z,30.68
2018-07-02T09:27:06.961Z,29.81
2018-07-02T09:29:35.233Z,29.39
2018-07-02T09:34:11.769Z,29.12
2018-07-02T09:36:40.464Z,29.63
2018-07-02T09:39:11.141Z,29.05
2018-07-02T09:41:39.230Z,29.73
2018-07-02T09:44:07.443Z,29.20
2018-07-02T09:46:35.933Z,28.61
2018-07-02T09:49:04.097Z,28.75
2018-07-02T09:51:32.507Z,29.04
2018-07-02T09:54:01.381Z,29.32
2018-07-02T09:56:29.761Z,29.23
2018-07-02T09:58:57.909Z,27.90
2018-07-02T10:01:25.995Z,28.50
2018-07-02T10:03:54.223Z,28.18
2018-07-02T10:06:22.527Z,28.49
2018-07-02T10:08:50.571Z,27.79
2018-07-02T10:14:24.734Z,27.78
2018-07-02T10:16:52.851Z,27.48
2018-07-02T10:19:20.995Z,28.02
2018-07-02T10:21:49.840Z,27.91
2018-07-02T10:24:18.008Z,27.67
2018-07-02T10:26:46.108Z,27.14
2018-07-02T10:29:14.277Z,26.32
2018-07-02T10:31:42.389Z,27.17
2018-07-02T10:34:10.459Z,27.33
2018-07-02T10:36:38.580Z,26.48
2018-07-02T10:39:08.067Z,26.90
2018-07-02T10:41:36.539Z,27.36
2018-07-02T10:44:04.637Z,27.57
2018-07-02T10:46:32.705Z,26.04
2018-07-02T10:49:01.113Z,26.30
2018-07-02T10:51:29.198Z,25.68
2018-07-02T10:53:57.256Z,26.54
2018-07-02T10:56:25.579Z,25.35
2018-07-02T10:58:53.715Z,25.39
2018-07-02T11:01:21.940Z,25.49
2018-07-02T11:03:50.044Z,25.66
2018-07-02T11:06:18.179Z,24.46
2018-07-02T11:08:46.280Z,24.68
2018-07-02T11:11:14.507Z,24.36
2018-07-02T11:13:42.603Z,23.92
2018-07-02T11:16:10.760Z,24.00
2018-07-02T11:18:38.950Z,24.08
2018-07-02T11:21:07.060Z,25.12
2018-07-02T11:23:35.312Z,24.76
2018-07-02T11:26:03.399Z,24.93
2018-07-02T11:28:31.531Z,24.88
2018-07-02T11:30:59.696Z,23.12
2018-07-02T11:33:27.799Z,24.05
2018-07-02T11:35:55.868Z,23.43
2018-07-02T11:38:23.952Z,23.66
2018-07-02T11:40:52.024Z,22.85
2018-07-02T11:43:20.232Z,21.71
2018-07-02T11:45:48.347Z,21.06
2018-07-02T11:48:16.459Z,19.92
2018-07-02T11:50:44.579Z,21.51
2018-07-02T11:53:12.763Z,19.04
2018-07-02T11:55:40.984Z,18.26
2018-07-02T11:58:09.093Z,20.25
2018-07-02T12:00:37.195Z,19.75
2018-07-02T12:03:05.306Z,18.16
2018-07-02T12:05:33.425Z,17.34
2018-07-02T12:08:01.527Z,17.09
2018-07-02T12:10:29.684Z,16.82
2018-07-02T12:12:57.787Z,15.73
2018-07-02T12:15:25.965Z,14.63
2018-07-02T12:17:54.076Z,15.36
2018-07-02T12:20:22.194Z,14.32
2018-07-02T12:22:50.684Z,14.59
2018-07-02T12:25:18.824Z,13.55
2018-07-02T12:27:46.932Z,14.62
2018-07-02T12:30:15.096Z,14.62
2018-07-02T12:32:43.189Z,14.93
2018-07-02T12:35:11.308Z,13.53
2018-07-02T12:37:39.420Z,12.68
2018-07-02T12:40:07.543Z,13.83
2018-07-02T12:42:35.641Z,12.92
2018-07-02T12:45:03.720Z,12.11
2018-07-02T12:47:31.805Z,12.37
2018-07-02T12:49:59.912Z,12.62
2018-07-02T12:52:28.011Z,11.20
2018-07-02T12:54:56.159Z,12.66
2018-07-02T12:57:24.263Z,11.29
2018-07-02T12:59:52.589Z,12.00
2018-07-02T13:02:20.651Z,11.48
2018-07-02T13:04:48.772Z,11.03
2018-07-02T13:07:16.844Z,11.24
2018-07-02T13:09:44.939Z,10.87
2018-07-02T13:12:13.016Z,9.90
2018-07-02T13:14:41.184Z,10.19
2018-07-02T13:17:09.278Z,10.63
2018-07-02T13:19:37.423Z,9.37
2018-07-02T13:22:05.516Z,9.31
2018-07-02T13:24:33.611Z,9.77
2018-07-02T13:27:01.714Z,10.17
2018-07-02T13:29:29.771Z,10.32
2018-07-02T13:31:57.932Z,8.97
2018-07-02T13:34:26.067Z,9.42
2018-07-02T13:36:54.173Z,9.44
2018-07-02T13:39:22.305Z,11.84
2018-07-02T13:41:50.812Z,9.68
2018-07-02T13:44:18.858Z,9.42
2018-07-02T13:46:46.950Z,9.66
2018-07-02T13:49:14.995Z,9.86
2018-07-02T13:51:43.059Z,9.61
2018-07-02T13:54:11.104Z,9.83
2018-07-02T13:56:39.163Z,9.28
2018-07-02T13:59:07.240Z,9.98
2018-07-02T14:01:35.335Z,8.67
2018-07-02T14:04:03.397Z,10.24
2018-07-02T14:06:31.443Z,9.72
2018-07-02T14:08:59.609Z,9.22
2018-07-02T14:11:27.650Z,8.89
2018-07-02T14:13:55.751Z,8.70
2018-07-02T14:16:23.795Z,8.92
2018-07-02T14:18:52.330Z,8.86
2018-07-02T14:21:20.903Z,8.54
2018-07-02T14:23:49.266Z,9.45
2018-07-02T14:26:17.323Z,8.88
2018-07-02T14:28:45.435Z,10.35
2018-07-02T14:31:13.536Z,9.77
2018-07-02T14:33:41.594Z,10.77
2018-07-02T14:36:09.651Z,10.14
2018-07-02T14:38:37.725Z,9.50
2018-07-02T14:41:05.998Z,9.58
2018-07-02T14:43:34.135Z,8.61
2018-07-02T14:46:02.224Z,9.19
2018-07-02T14:48:30.334Z,9.93
2018-07-02T14:50:58.483Z,10.06
2018-07-02T14:53:26.549Z,9.28
2018-07-02T14:55:54.648Z,9.54
2018-07-02T14:58:22.809Z,9.74
2018-07-02T15:00:51.191Z,10.08
2018-07-02T15:03:19.350Z,10.29
2018-07-02T15:05:47.530Z,10.08
2018-07-02T15:08:15.621Z,9.16
2018-07-02T15:10:43.715Z,7.99
2018-07-02T15:13:11.839Z,8.49
2018-07-02T15:15:40.027Z,7.90
2018-07-02T15:18:08.197Z,8.18
2018-07-02T15:20:36.314Z,8.56
2018-07-02T15:23:04.442Z,9.05
2018-07-02T15:25:32.546Z,8.43
2018-07-02T15:28:00.693Z,8.73
2018-07-02T15:30:28.863Z,7.78
2018-07-02T15:32:57.091Z,8.74
2018-07-02T15:35:26.010Z,9.18
2018-07-02T15:37:54.102Z,9.35
2018-07-02T15:40:22.225Z,8.11
2018-07-02T15:42:51.339Z,8.22
2018-07-02T15:45:19.382Z,9.49
2018-07-02T15:47:47.464Z,10.02
2018-07-02T15:50:15.508Z,9.41
2018-07-02T15:52:43.591Z,10.45
2018-07-02T15:55:11.900Z,9.72
2018-07-02T15:57:39.732Z,9.00
2018-07-02T16:00:07.844Z,8.69
2018-07-02T16:02:35.966Z,8.64
2018-07-02T16:05:04.317Z,10.87
2018-07-02T16:07:32.351Z,10.81
2018-07-02T16:10:00.452Z,11.96
2018-07-02T16:12:28.573Z,12.64
2018-07-02T16:14:56.715Z,11.75
2018-07-02T16:17:24.777Z,13.38
2018-07-02T16:19:52.838Z,12.89
2018-07-02T16:22:21.460Z,13.37
2018-07-02T16:24:49.843Z,12.84
2018-07-02T16:27:17.996Z,12.83
2018-07-02T16:29:46.144Z,13.47
2018-07-02T16:32:14.259Z,12.89
2018-07-02T16:34:42.333Z,13.89
2018-07-02T16:37:10.438Z,14.52
2018-07-02T16:39:38.499Z,14.19
2018-07-02T16:42:06.602Z,13.38
2018-07-02T16:44:34.726Z,14.80
2018-07-02T16:47:02.828Z,14.61
2018-07-02T16:49:30.982Z,14.37
2018-07-02T16:51:59.128Z,15.13
2018-07-02T16:54:27.194Z,15.02
2018-07-02T16:56:56.314Z,14.46
2018-07-02T16:59:24.395Z,14.79
2018-07-02T17:01:52.476Z,15.36
2018-07-02T17:04:21.669Z,15.38
2018-07-02T17:06:49.866Z,15.55
2018-07-02T17:09:17.954Z,15.94
2018-07-02T17:11:46.031Z,16.44
2018-07-02T17:14:14.171Z,16.07
2018-07-02T17:16:42.279Z,15.94
2018-07-02T17:19:10.339Z,15.83
2018-07-02T17:21:38.458Z,16.10
2018-07-02T17:24:06.741Z,16.27
2018-07-02T17:26:34.811Z,16.22
2018-07-02T17:29:02.964Z,16.71
2018-07-02T17:31:31.120Z,16.51
2018-07-02T17:33:59.207Z,16.68
2018-07-02T17:36:27.286Z,17.78
2018-07-02T17:38:55.339Z,17.55
2018-07-02T17:41:23.447Z,17.25
2018-07-02T17:43:51.886Z,16.90
2018-07-02T17:46:19.986Z,16.65
2018-07-02T17:48:48.059Z,17.13
2018-07-02T17:51:16.169Z,16.99
2018-07-02T17:53:44.259Z,16.63
2018-07-02T17:56:12.387Z,17.74
2018-07-02T17:58:40.552Z,17.53
2018-07-02T18:01:08.690Z,17.70
2018-07-02T18:03:36.767Z,17.53
2018-07-02T18:06:05.299Z,17.28
2018-07-02T18:08:33.447Z,18.25
2018-07-02T18:11:01.527Z,17.41
2018-07-02T18:13:29.581Z,17.63
2018-07-02T18:15:57.660Z,17.08
2018-07-02T18:18:25.864Z,17.38
2018-07-02T18:20:54.036Z,17.08
2018-07-02T18:23:22.175Z,17.42
2018-07-02T18:25:50.304Z,17.16
2018-07-02T18:28:18.420Z,18.00
2018-07-02T18:30:46.575Z,17.90
2018-07-02T18:33:14.802Z,18.05
2018-07-02T18:35:43.743Z,17.57
2018-07-02T18:38:11.896Z,18.06
2018-07-02T18:40:39.967Z,18.20
2018-07-02T18:43:08.144Z,18.22
2018-07-02T18:45:36.332Z,18.94
2018-07-02T18:48:04.451Z,18.89
2018-07-02T18:50:32.609Z,18.62
2018-07-02T18:53:00.772Z,18.49
2018-07-02T18:55:29.073Z,19.22
2018-07-02T18:57:57.159Z,18.92
2018-07-02T19:00:25.307Z,18.91
2018-07-02T19:02:53.489Z,20.09
2018-07-02T19:05:22.155Z,19.30
2018-07-02T19:07:50.360Z,18.88
2018-07-02T19:10:18.470Z,19.22
2018-07-02T19:12:46.584Z,19.31
2018-07-02T19:15:14.699Z,19.83
2018-07-02T19:17:42.808Z,19.24
2018-07-02T19:20:10.950Z,19.66
2018-07-02T19:22:39.091Z,20.02
2018-07-02T19:25:07.447Z,19.50
2018-07-02T19:27:35.551Z,19.72
2018-07-02T19:30:03.713Z,20.43
2018-07-02T19:32:31.803Z,20.68
2018-07-02T19:34:59.919Z,20.73
2018-07-02T19:37:28.033Z,21.15
2018-07-02T19:39:56.202Z,20.96
2018-07-02T19:42:24.312Z,20.91
2018-07-02T19:44:52.432Z,20.83
2018-07-02T19:47:20.648Z,20.88
2018-07-02T19:49:49.136Z,20.53
2018-07-02T19:52:17.406Z,21.25
2018-07-02T19:54:45.518Z,22.36
2018-07-02T19:57:13.682Z,23.09
2018-07-02T19:59:41.835Z,23.27
2018-07-02T20:02:09.998Z,23.09
2018-07-02T20:04:38.164Z,21.93
2018-07-02T20:07:06.513Z,23.17
2018-07-02T20:09:34.552Z,23.22
2018-07-02T20:12:02.759Z,24.01
2018-07-02T20:14:30.888Z,23.28
2018-07-02T20:16:59.094Z,24.12
2018-07-02T20:19:28.307Z,23.67
2018-07-02T20:21:56.456Z,23.87
2018-07-02T20:24:24.561Z,24.43
2018-07-02T20:26:52.696Z,25.67
2018-07-02T20:29:20.832Z,25.65
2018-07-02T20:31:49.030Z,24.24
2018-07-02T20:34:17.276Z,25.11
2018-07-02T20:36:45.439Z,25.92
2018-07-02T20:39:13.597Z,26.01
2018-07-02T20:41:41.748Z,25.08
2018-07-02T20:44:10.021Z,26.06
2018-07-02T20:46:38.252Z,25.30
2018-07-02T20:49:06.594Z,25.51
2018-07-02T20:51:34.732Z,26.43
2018-07-02T20:54:03.896Z,25.85
2018-07-02T20:56:32.067Z,25.43
2018-07-02T20:59:00.219Z,25.51
2018-07-02T21:01:28.412Z,25.10
2018-07-02T21:03:56.572Z,25.24
2018-07-02T21:06:24.727Z,25.48
2018-07-02T21:08:52.853Z,25.71
2018-07-02T21:11:20.995Z,26.10
2018-07-02T21:13:49.155Z,26.04
2018-07-02T21:16:17.678Z,26.58
2018-07-02T21:18:46.882Z,26.78
2018-07-02T21:21:15.102Z,26.49
2018-07-02T21:23:43.176Z,26.43
2018-07-02T21:26:11.296Z,25.82
2018-07-02T21:28:39.422Z,26.73
2018-07-02T21:31:07.676Z,26.45
2018-07-02T21:33:35.840Z,27.02
2018-07-02T21:36:04.039Z,26.85
2018-07-02T21:38:32.143Z,26.64
2018-07-02T21:41:00.207Z,26.39
2018-07-02T21:43:28.311Z,26.32
2018-07-02T21:45:57.139Z,26.82
2018-07-02T21:48:25.331Z,25.94
2018-07-02T21:50:53.377Z,26.77
2018-07-02T21:53:21.600Z,27.13
2018-07-02T21:55:59.948Z,26.60
2018-07-02T21:58:28.156Z,26.38
2018-07-02T22:00:56.401Z,26.94
2018-07-02T22:03:24.514Z,27.52
2018-07-02T22:05:52.928Z,27.61
2018-07-02T22:08:21.055Z,28.65
2018-07-02T22:10:49.147Z,29.05
2018-07-02T22:13:17.256Z,29.58
2018-07-02T22:15:45.351Z,28.18
2018-07-02T22:18:13.455Z,29.23
2018-07-02T22:20:41.583Z,28.98
2018-07-02T22:23:09.709Z,28.36
2018-07-02T22:25:37.808Z,28.91
2018-07-02T22:28:05.966Z,29.53
2018-07-02T22:30:34.071Z,29.57
2018-07-02T22:33:02.203Z,29.63
2018-07-02T22:35:30.302Z,29.41
2018-07-02T22:37:58.388Z,28.58
2018-07-02T22:40:26.632Z,29.60
2018-07-02T22:42:54.828Z,29.30
2018-07-02T22:45:23.071Z,30.02
2018-07-02T22:47:51.657Z,30.52
2018-07-02T22:50:19.756Z,30.12
2018-07-02T22:52:48.171Z,29.20
2018-07-02T22:55:16.268Z,29.90
2018-07-02T22:57:44.441Z,30.08
2018-07-02T23:00:12.533Z,30.11
2018-07-02T23:02:40.617Z,30.41
2018-07-02T23:05:08.414Z,30.10
2018-07-02T23:07:36.655Z,29.62
2018-07-02T23:10:05.077Z,28.66
2018-07-02T23:12:33.183Z,29.77
2018-07-02T23:15:01.306Z,30.33
2018-07-02T23:17:29.498Z,30.05
2018-07-02T23:19:57.594Z,29.22
2018-07-02T23:22:29.340Z,29.89
2018-07-02T23:24:57.454Z,29.98
2018-07-02T23:27:25.550Z,31.09
2018-07-02T23:29:53.720Z,30.87
2018-07-02T23:32:21.952Z,31.14
2018-07-02T23:34:50.082Z,30.85
2018-07-02T23:37:18.205Z,31.15
2018-07-02T23:39:46.331Z,31.01
2018-07-02T23:42:14.478Z,30.34
2018-07-02T23:44:42.880Z,31.81
2018-07-02T23:47:11.132Z,31.99
2018-07-02T23:49:39.294Z,31.14
2018-07-02T23:52:07.611Z,31.23
2018-07-02T23:54:35.720Z,31.87
2018-07-02T23:57:03.778Z,30.84
2018-07-02T23:59:32.263Z,31.21
